createdAt,value
2019-04-16T00:00:43.746Z,99.90
2019-04-16T00:03:13.113Z,99.90
2019-04-16T00:05:45.302Z,99.90
2019-04-16T00:08:27.350Z,99.90
2019-04-16T00:11:00.361Z,99.90
2019-04-16T00:13:41.766Z,99.90
2019-04-16T00:16:13.028Z,99.90
2019-04-16T00:18:42.047Z,99.90
2019-04-16T00:21:29.148Z,99.90
2019-04-16T00:24:18.541Z,99.70
2019-04-16T00:26:51.166Z,99.80
2019-04-16T00:29:20.470Z,99.50
2019-04-16T00:31:53.418Z,99.60
2019-04-16T00:34:23.231Z,99.70
2019-04-16T00:36:52.514Z,99.70
2019-04-16T00:39:24.362Z,99.70
2019-04-16T00:41:52.773Z,99.90
2019-04-16T00:44:22.084Z,99.90
2019-04-16T00:46:51.695Z,99.90
2019-04-16T00:49:21.086Z,99.90
2019-04-16T00:51:50.791Z,99.90
2019-04-16T00:54:20.070Z,99.90
2019-04-16T00:56:49.333Z,99.90
2019-04-16T00:59:21.431Z,99.90
2019-04-16T01:01:49.558Z,99.90
2019-04-16T01:04:18.873Z,99.90
2019-04-16T01:06:48.151Z,99.90
2019-04-16T01:09:17.843Z,99.90
2019-04-16T01:11:48.899Z,99.90
2019-04-16T01:14:18.229Z,99.90
2019-04-16T01:16:47.480Z,99.90
2019-04-16T01:19:16.742Z,99.90
2019-04-16T01:21:46.006Z,99.90
2019-04-16T01:24:17.607Z,99.90
2019-04-16T01:26:46.234Z,99.90
2019-04-16T01:29:16.873Z,99.90
2019-04-16T01:32:04.525Z,99.90
2019-04-16T01:34:42.326Z,99.90
2019-04-16T01:37:25.807Z,99.90
2019-04-16T01:39:56.196Z,99.90
2019-04-16T01:42:25.469Z,99.90
2019-04-16T01:44:59.370Z,99.90
2019-04-16T01:47:25.805Z,99.90
2019-04-16T01:49:55.062Z,99.90
2019-04-16T01:52:24.341Z,99.90
2019-04-16T01:54:54.845Z,99.90
2019-04-16T01:57:25.062Z,99.90
2019-04-16T01:59:54.774Z,99.90
2019-04-16T02:02:24.108Z,99.90
2019-04-16T02:04:53.400Z,99.90
2019-04-16T02:07:27.728Z,99.90
2019-04-16T02:09:53.829Z,99.90
2019-04-16T02:12:23.222Z,99.90
2019-04-16T02:14:52.812Z,99.90
2019-04-16T02:17:26.691Z,99.90
2019-04-16T02:19:53.443Z,99.90
2019-04-16T02:22:22.723Z,99.90
2019-04-16T02:24:51.999Z,99.90
2019-04-16T02:27:23.446Z,99.90
2019-04-16T02:29:53.705Z,99.90
2019-04-16T02:32:23.186Z,99.90
2019-04-16T02:34:52.596Z,99.90
2019-04-16T02:37:22.046Z,99.90
2019-04-16T02:39:51.418Z,99.90
2019-04-16T02:42:21.141Z,99.90
2019-04-16T02:44:50.632Z,99.90
2019-04-16T02:47:20.197Z,99.90
2019-04-16T02:49:49.488Z,99.90
2019-04-16T02:52:27.969Z,99.90
2019-04-16T02:55:11.197Z,99.90
2019-04-16T02:57:50.655Z,99.90
2019-04-16T03:00:49.150Z,99.90
2019-04-16T03:03:22.221Z,99.90
2019-04-16T03:05:54.213Z,99.90
2019-04-16T03:08:23.829Z,99.90
2019-04-16T03:10:53.025Z,99.90
2019-04-16T03:13:23.272Z,99.90
2019-04-16T03:16:15.353Z,99.90
2019-04-16T03:18:49.239Z,99.90
2019-04-16T03:21:18.409Z,99.90
2019-04-16T03:23:48.272Z,99.90
2019-04-16T03:26:18.211Z,99.90
2019-04-16T03:28:47.805Z,99.90
2019-04-16T03:31:22.275Z,99.90
2019-04-16T03:33:50.198Z,99.90
2019-04-16T03:36:19.334Z,99.90
2019-04-16T03:38:48.985Z,99.90
2019-04-16T03:41:19.107Z,99.90
2019-04-16T03:43:48.526Z,99.90
2019-04-16T03:46:17.688Z,99.90
2019-04-16T03:48:47.428Z,99.90
2019-04-16T03:51:17.154Z,99.90
2019-04-16T03:53:46.515Z,99.90
2019-04-16T03:56:17.282Z,99.90
2019-04-16T03:58:46.556Z,99.90
2019-04-16T04:01:15.874Z,99.90
2019-04-16T04:03:45.100Z,99.90
2019-04-16T04:06:14.567Z,99.90
2019-04-16T04:08:47.934Z,99.90
2019-04-16T04:11:14.762Z,99.90
2019-04-16T04:13:49.765Z,99.90
2019-04-16T04:16:16.390Z,99.90
2019-04-16T04:18:45.694Z,99.90
2019-04-16T04:21:14.992Z,99.90
2019-04-16T04:23:44.208Z,99.90
2019-04-16T04:26:13.517Z,99.90
2019-04-16T04:28:42.718Z,99.90
2019-04-16T04:31:12.070Z,99.90
2019-04-16T04:33:43.020Z,99.90
2019-04-16T04:36:12.606Z,99.90
2019-04-16T04:38:41.818Z,99.90
2019-04-16T04:41:11.101Z,99.90
2019-04-16T04:43:40.346Z,99.90
2019-04-16T04:46:13.537Z,99.90
2019-04-16T04:48:40.518Z,99.90
2019-04-16T04:51:09.725Z,99.90
2019-04-16T04:53:38.921Z,99.90
2019-04-16T04:56:08.560Z,99.90
2019-04-16T04:58:38.393Z,99.90
2019-04-16T05:01:09.541Z,99.90
2019-04-16T05:03:57.158Z,99.90
2019-04-16T05:06:29.649Z,99.90
2019-04-16T05:09:00.472Z,99.90
2019-04-16T05:11:29.805Z,99.90
2019-04-16T05:13:59.379Z,99.90
2019-04-16T05:16:31.456Z,99.90
2019-04-16T05:19:00.282Z,99.90
2019-04-16T05:21:30.258Z,99.90
2019-04-16T05:24:00.823Z,99.90
2019-04-16T05:26:30.081Z,99.90
2019-04-16T05:29:16.083Z,99.90
2019-04-16T05:31:44.038Z,99.90
2019-04-16T05:34:13.236Z,99.90
2019-04-16T05:36:47.862Z,99.90
2019-04-16T05:39:15.013Z,99.90
2019-04-16T05:41:44.465Z,99.90
2019-04-16T05:44:13.611Z,99.90
2019-04-16T05:46:46.490Z,99.90
2019-04-16T05:49:13.856Z,99.90
2019-04-16T05:51:43.594Z,99.90
2019-04-16T05:54:31.953Z,99.90
2019-04-16T05:57:01.949Z,99.90
2019-04-16T05:59:33.723Z,99.90
2019-04-16T06:02:07.610Z,99.90
2019-04-16T06:04:37.308Z,99.90
2019-04-16T06:07:07.683Z,99.90
2019-04-16T06:09:37.338Z,99.90
2019-04-16T06:12:08.920Z,99.90
2019-04-16T06:14:43.297Z,99.90
2019-04-16T06:17:46.793Z,99.90
2019-04-16T06:20:39.280Z,99.90
2019-04-16T06:23:26.367Z,99.90
2019-04-16T06:26:01.333Z,99.90
2019-04-16T06:28:48.722Z,99.90
2019-04-16T06:31:39.397Z,99.90
2019-04-16T06:34:30.376Z,99.90
2019-04-16T06:37:30.843Z,99.90
2019-04-16T06:40:18.142Z,99.90
2019-04-16T06:42:54.208Z,99.90
2019-04-16T06:45:36.980Z,99.90
2019-04-16T06:48:26.443Z,99.90
2019-04-16T06:51:13.829Z,99.90
2019-04-16T06:54:07.370Z,99.90
2019-04-16T06:56:44.317Z,99.90
2019-04-16T06:59:35.580Z,99.90
2019-04-16T07:02:44.043Z,99.90
2019-04-16T07:05:22.596Z,99.90
2019-04-16T07:08:18.406Z,99.90
2019-04-16T07:10:54.797Z,99.90
2019-04-16T07:13:24.114Z,99.90
2019-04-16T07:15:56.714Z,99.90
2019-04-16T07:18:24.269Z,99.90
2019-04-16T07:20:53.505Z,99.90
2019-04-16T07:23:24.813Z,99.90
2019-04-16T07:25:53.795Z,99.90
2019-04-16T07:28:27.887Z,99.90
2019-04-16T07:31:25.913Z,99.90
2019-04-16T07:34:11.616Z,99.90
2019-04-16T07:36:56.649Z,99.90
2019-04-16T07:39:46.337Z,99.90
2019-04-16T07:42:22.244Z,99.90
2019-04-16T07:45:15.799Z,99.90
2019-04-16T07:48:05.899Z,99.90
2019-04-16T07:50:58.241Z,99.90
2019-04-16T07:53:48.120Z,99.90
2019-04-16T07:56:23.749Z,99.90
2019-04-16T07:58:52.989Z,99.90
2019-04-16T08:01:22.237Z,99.90
2019-04-16T08:03:51.467Z,99.90
2019-04-16T08:06:20.777Z,99.90
2019-04-16T08:08:50.207Z,99.90
2019-04-16T08:11:19.469Z,99.90
2019-04-16T08:13:48.750Z,99.90
2019-04-16T08:16:19.426Z,99.90
2019-04-16T08:18:50.140Z,99.90
2019-04-16T08:21:22.456Z,99.90
2019-04-16T08:23:59.732Z,99.90
2019-04-16T08:26:29.192Z,99.90
2019-04-16T08:28:58.539Z,99.90
2019-04-16T08:31:29.543Z,99.90
2019-04-16T08:33:58.906Z,99.90
2019-04-16T08:36:28.358Z,99.90
2019-04-16T08:38:58.043Z,99.90
2019-04-16T08:41:27.856Z,99.90
2019-04-16T08:43:59.770Z,99.90
2019-04-16T08:46:28.476Z,99.90
2019-04-16T08:48:58.828Z,99.90
2019-04-16T08:51:30.634Z,99.90
2019-04-16T08:53:59.104Z,99.90
2019-04-16T08:56:28.782Z,99.90
2019-04-16T08:59:00.927Z,99.90
2019-04-16T09:01:31.053Z,99.90
2019-04-16T09:04:02.462Z,99.90
2019-04-16T09:06:31.349Z,99.90
2019-04-16T09:09:13.954Z,99.90
2019-04-16T09:11:41.897Z,99.90
2019-04-16T09:14:11.189Z,97.10
2019-04-16T09:16:49.960Z,99.90
2019-04-16T09:19:19.183Z,99.90
2019-04-16T09:21:48.412Z,98.70
2019-04-16T09:24:22.179Z,98.20
2019-04-16T09:26:59.972Z,98.70
2019-04-16T09:29:41.914Z,99.90
2019-04-16T09:32:33.226Z,98.00
2019-04-16T09:35:11.019Z,99.90
2019-04-16T09:38:01.835Z,95.80
2019-04-16T09:40:49.235Z,98.80
2019-04-16T09:43:21.882Z,99.90
2019-04-16T09:45:51.642Z,99.90
2019-04-16T09:48:20.842Z,99.90
2019-04-16T09:50:50.214Z,95.20
2019-04-16T09:53:32.213Z,95.00
2019-04-16T09:55:51.312Z,97.00
2019-04-16T09:58:23.120Z,99.70
2019-04-16T10:01:04.894Z,94.80
2019-04-16T10:03:36.492Z,99.40
2019-04-16T10:06:06.253Z,95.50
2019-04-16T10:08:35.461Z,95.50
2019-04-16T10:11:06.172Z,95.50
2019-04-16T10:13:36.396Z,95.40
2019-04-16T10:16:07.168Z,94.80
2019-04-16T10:18:36.515Z,93.90
2019-04-16T10:21:06.129Z,93.30
2019-04-16T10:23:48.846Z,92.30
2019-04-16T10:26:18.142Z,91.10
2019-04-16T10:28:50.450Z,91.10
2019-04-16T10:31:20.519Z,90.80
2019-04-16T10:33:50.108Z,90.40
2019-04-16T10:36:19.441Z,90.00
2019-04-16T10:38:55.535Z,88.80
2019-04-16T10:41:43.937Z,87.90
2019-04-16T10:44:19.785Z,89.30
2019-04-16T10:47:01.072Z,90.90
2019-04-16T10:49:48.903Z,90.20
2019-04-16T10:52:29.022Z,89.00
2019-04-16T10:55:12.180Z,89.20
2019-04-16T10:57:59.765Z,87.40
2019-04-16T11:00:51.065Z,86.70
2019-04-16T11:03:28.777Z,85.20
2019-04-16T11:06:08.239Z,84.50
2019-04-16T11:08:37.554Z,86.70
2019-04-16T11:11:07.101Z,84.90
2019-04-16T11:13:39.774Z,84.40
2019-04-16T11:16:12.036Z,86.60
2019-04-16T11:18:41.455Z,85.60
2019-04-16T11:21:12.382Z,86.30
2019-04-16T11:23:42.058Z,85.30
2019-04-16T11:26:11.631Z,85.70
2019-04-16T11:28:40.989Z,84.50
2019-04-16T11:31:15.931Z,83.80
2019-04-16T11:33:45.287Z,83.00
2019-04-16T11:36:19.374Z,84.80
2019-04-16T11:38:45.959Z,87.00
2019-04-16T11:41:15.230Z,86.90
2019-04-16T11:43:44.535Z,87.40
2019-04-16T11:46:13.845Z,85.20
2019-04-16T11:48:43.133Z,84.40
2019-04-16T11:51:12.463Z,84.80
2019-04-16T11:53:42.384Z,84.90
2019-04-16T11:56:12.076Z,86.20
2019-04-16T11:58:47.703Z,86.10
2019-04-16T12:01:35.423Z,85.80
2019-04-16T12:04:20.201Z,85.00
2019-04-16T12:07:06.003Z,86.30
2019-04-16T12:09:53.432Z,86.80
2019-04-16T12:12:26.559Z,85.70
2019-04-16T12:15:10.015Z,85.60
2019-04-16T12:17:56.937Z,83.50
2019-04-16T12:20:28.385Z,82.90
2019-04-16T12:23:19.560Z,82.00
2019-04-16T12:26:14.629Z,81.00
2019-04-16T12:29:02.972Z,82.00
2019-04-16T12:31:49.968Z,83.00
2019-04-16T12:34:32.580Z,83.00
2019-04-16T12:37:13.788Z,82.50
2019-04-16T12:40:08.979Z,81.40
2019-04-16T12:43:14.694Z,81.60
2019-04-16T12:45:54.048Z,81.20
2019-04-16T12:48:41.209Z,81.20
2019-04-16T12:51:20.416Z,81.80
2019-04-16T12:53:57.943Z,80.70
2019-04-16T12:56:46.275Z,81.00
2019-04-16T12:59:25.540Z,82.00
2019-04-16T13:02:13.747Z,84.20
2019-04-16T13:04:59.706Z,86.50
2019-04-16T13:07:47.965Z,86.60
2019-04-16T13:10:21.879Z,86.90
2019-04-16T13:13:14.893Z,86.70
2019-04-16T13:16:09.713Z,87.10
2019-04-16T13:18:57.416Z,86.70
2019-04-16T13:21:33.555Z,86.30
2019-04-16T13:24:21.813Z,85.60
2019-04-16T13:27:03.715Z,85.40
2019-04-16T13:29:33.761Z,85.60
2019-04-16T13:32:03.041Z,86.20
2019-04-16T13:34:32.699Z,87.10
2019-04-16T13:37:02.439Z,85.90
2019-04-16T13:39:44.448Z,85.50
2019-04-16T13:42:14.133Z,85.40
2019-04-16T13:44:46.538Z,86.20
2019-04-16T13:47:16.138Z,85.80
2019-04-16T13:50:10.793Z,85.20
2019-04-16T13:52:41.648Z,85.70
2019-04-16T13:55:24.418Z,86.30
2019-04-16T13:58:02.971Z,86.00
2019-04-16T14:00:41.041Z,85.50
2019-04-16T14:03:13.267Z,85.10
2019-04-16T14:05:42.924Z,85.00
2019-04-16T14:08:12.430Z,85.50
2019-04-16T14:10:43.260Z,86.20
2019-04-16T14:13:13.857Z,87.40
2019-04-16T14:15:44.921Z,88.10
2019-04-16T14:18:14.323Z,86.50
2019-04-16T14:20:43.741Z,85.70
2019-04-16T14:23:12.977Z,84.00
2019-04-16T14:25:42.391Z,82.00
2019-04-16T14:28:11.799Z,82.00
2019-04-16T14:30:44.233Z,82.00
2019-04-16T14:33:17.221Z,81.90
2019-04-16T14:35:46.877Z,79.40
2019-04-16T14:38:19.664Z,78.60
2019-04-16T14:40:49.275Z,78.10
2019-04-16T14:43:21.712Z,78.20
2019-04-16T14:45:59.385Z,76.60
2019-04-16T14:48:23.894Z,75.30
2019-04-16T14:50:53.225Z,73.00
2019-04-16T14:53:40.571Z,70.80
2019-04-16T14:56:17.957Z,67.90
2019-04-16T14:59:30.449Z,66.60
2019-04-16T15:02:03.607Z,66.70
2019-04-16T15:04:51.937Z,65.30
2019-04-16T15:07:46.025Z,64.80
2019-04-16T15:10:33.346Z,65.50
2019-04-16T15:13:36.959Z,64.40
2019-04-16T15:16:25.236Z,65.00
2019-04-16T15:19:12.219Z,66.10
2019-04-16T15:22:15.868Z,67.60
2019-04-16T15:25:05.802Z,69.80
2019-04-16T15:27:53.379Z,69.40
2019-04-16T15:30:45.107Z,71.90
2019-04-16T15:33:32.205Z,74.30
2019-04-16T15:36:18.510Z,75.00
2019-04-16T15:38:59.019Z,75.70
2019-04-16T15:41:46.317Z,77.20
2019-04-16T15:44:22.619Z,77.00
2019-04-16T15:47:13.911Z,78.50
2019-04-16T15:49:55.651Z,80.20
2019-04-16T15:52:41.673Z,80.30
2019-04-16T15:55:27.107Z,81.20
2019-04-16T15:58:07.756Z,81.20
2019-04-16T16:01:02.256Z,82.80
2019-04-16T16:03:49.175Z,82.70
2019-04-16T16:06:22.218Z,83.00
2019-04-16T16:09:03.798Z,84.10
2019-04-16T16:11:48.058Z,84.30
2019-04-16T16:14:17.117Z,84.90
2019-04-16T16:16:47.825Z,85.80
2019-04-16T16:19:18.134Z,85.90
2019-04-16T16:21:47.461Z,86.20
2019-04-16T16:24:16.831Z,86.70
2019-04-16T16:26:46.121Z,87.30
2019-04-16T16:29:15.585Z,87.60
2019-04-16T16:31:45.174Z,88.00
2019-04-16T16:34:14.450Z,87.40
2019-04-16T16:36:43.762Z,88.20
2019-04-16T16:39:13.411Z,88.80
2019-04-16T16:41:46.377Z,88.60
2019-04-16T16:44:14.027Z,89.20
2019-04-16T16:46:57.208Z,88.40
2019-04-16T16:49:22.693Z,89.10
2019-04-16T16:52:12.158Z,89.10
2019-04-16T16:54:41.989Z,89.80
2019-04-16T16:57:14.277Z,90.30
2019-04-16T17:00:04.878Z,90.60
2019-04-16T17:02:48.593Z,90.80
2019-04-16T17:05:28.314Z,91.20
2019-04-16T17:07:57.702Z,91.30
2019-04-16T17:10:26.904Z,91.60
2019-04-16T17:12:56.109Z,91.80
2019-04-16T17:15:25.408Z,91.90
2019-04-16T17:17:55.114Z,92.20
2019-04-16T17:20:24.501Z,92.50
2019-04-16T17:22:54.479Z,92.60
2019-04-16T17:25:35.585Z,93.20
2019-04-16T17:27:54.742Z,93.00
2019-04-16T17:30:24.010Z,93.40
2019-04-16T17:32:53.303Z,93.40
2019-04-16T17:35:23.245Z,93.70
2019-04-16T17:37:52.537Z,94.10
2019-04-16T17:40:31.557Z,94.30
2019-04-16T17:43:12.346Z,95.70
2019-04-16T17:45:46.458Z,97.90
2019-04-16T17:48:30.493Z,99.40
2019-04-16T17:51:17.461Z,99.90
2019-04-16T17:54:01.695Z,99.90
2019-04-16T17:57:02.942Z,99.90
2019-04-16T17:59:43.365Z,99.90
2019-04-16T18:02:31.596Z,99.90
2019-04-16T18:05:14.864Z,99.90
2019-04-16T18:08:11.490Z,99.90
2019-04-16T18:10:59.722Z,99.90
2019-04-16T18:13:37.883Z,99.90
2019-04-16T18:16:29.310Z,99.90
2019-04-16T18:19:26.693Z,99.90
2019-04-16T18:22:06.063Z,99.90
2019-04-16T18:25:02.907Z,99.90
2019-04-16T18:27:40.957Z,99.90
2019-04-16T18:30:35.437Z,99.90
2019-04-16T18:33:27.013Z,99.90
2019-04-16T18:36:18.065Z,99.90
2019-04-16T18:39:06.443Z,99.90
2019-04-16T18:41:55.030Z,99.90
2019-04-16T18:44:46.211Z,99.90
2019-04-16T18:47:33.776Z,99.90
2019-04-16T18:50:05.850Z,99.90
2019-04-16T18:52:36.598Z,99.90
2019-04-16T18:55:08.390Z,99.90
2019-04-16T18:57:38.400Z,99.90
2019-04-16T19:00:28.680Z,99.90
2019-04-16T19:02:58.533Z,99.90
2019-04-16T19:05:28.910Z,99.90
2019-04-16T19:08:00.204Z,99.90
2019-04-16T19:10:29.281Z,99.90
2019-04-16T19:12:58.689Z,99.90
2019-04-16T19:15:28.045Z,99.90
2019-04-16T19:17:57.249Z,99.90
2019-04-16T19:20:26.638Z,99.90
2019-04-16T19:22:56.227Z,99.90
2019-04-16T19:25:25.642Z,99.90
2019-04-16T19:27:55.251Z,99.90
2019-04-16T19:30:24.508Z,99.90
2019-04-16T19:32:54.555Z,99.90
2019-04-16T19:35:25.507Z,99.90
2019-04-16T19:37:55.589Z,99.90
2019-04-16T19:40:25.068Z,99.90
2019-04-16T19:42:54.287Z,99.90
2019-04-16T19:45:23.696Z,99.90
2019-04-16T19:47:52.949Z,99.90
2019-04-16T19:50:22.481Z,99.90
2019-04-16T19:52:51.758Z,99.90
2019-04-16T19:55:21.550Z,99.90
2019-04-16T19:57:51.079Z,99.90
2019-04-16T20:00:23.000Z,99.90
2019-04-16T20:02:51.601Z,99.90
2019-04-16T20:05:20.880Z,99.90
2019-04-16T20:07:50.144Z,99.90
2019-04-16T20:10:19.566Z,99.90
2019-04-16T20:12:48.822Z,99.90
2019-04-16T20:15:18.021Z,99.90
2019-04-16T20:17:47.506Z,99.90
2019-04-16T20:20:16.750Z,99.90
2019-04-16T20:22:46.234Z,99.90
2019-04-16T20:25:16.124Z,99.90
2019-04-16T20:27:45.634Z,99.90
2019-04-16T20:30:15.409Z,99.90
2019-04-16T20:32:44.680Z,99.90
2019-04-16T20:35:17.883Z,99.90
2019-04-16T20:37:45.046Z,99.90
2019-04-16T20:40:14.634Z,99.90
2019-04-16T20:42:45.531Z,99.90
2019-04-16T20:45:14.786Z,99.90
2019-04-16T20:47:44.010Z,99.90
2019-04-16T20:50:13.629Z,99.90
2019-04-16T20:52:43.545Z,99.90
2019-04-16T20:55:16.038Z,99.90
2019-04-16T20:57:44.126Z,99.90
2019-04-16T21:00:15.746Z,99.90
2019-04-16T21:02:44.980Z,99.90
2019-04-16T21:05:21.893Z,99.90
2019-04-16T21:07:47.195Z,99.90
2019-04-16T21:10:17.276Z,99.90
2019-04-16T21:12:46.472Z,99.90
2019-04-16T21:15:16.101Z,99.90
2019-04-16T21:17:46.497Z,99.90
2019-04-16T21:20:19.324Z,99.90
2019-04-16T21:22:46.731Z,99.90
2019-04-16T21:25:15.953Z,99.90
2019-04-16T21:27:51.723Z,99.90
2019-04-16T21:30:21.021Z,99.90
2019-04-16T21:33:12.844Z,99.90
2019-04-16T21:35:46.193Z,99.90
2019-04-16T21:38:45.207Z,99.90
2019-04-16T21:41:14.687Z,99.90
2019-04-16T21:43:44.193Z,99.90
2019-04-16T21:46:13.909Z,99.90
2019-04-16T21:48:43.420Z,99.90
2019-04-16T21:51:13.209Z,99.90
2019-04-16T21:53:42.470Z,99.90
2019-04-16T21:56:11.689Z,99.90
2019-04-16T21:58:40.862Z,99.90
2019-04-16T22:01:21.930Z,99.90
2019-04-16T22:03:59.921Z,99.90
2019-04-16T22:06:29.128Z,99.90
2019-04-16T22:09:01.716Z,99.90
2019-04-16T22:11:29.311Z,99.90
2019-04-16T22:13:58.690Z,99.90
2019-04-16T22:16:29.935Z,99.90
2019-04-16T22:18:59.286Z,99.90
2019-04-16T22:21:28.566Z,99.90
2019-04-16T22:23:58.090Z,99.90
2019-04-16T22:26:27.256Z,99.90
2019-04-16T22:28:57.243Z,99.90
2019-04-16T22:31:27.855Z,99.90
2019-04-16T22:33:57.110Z,99.90
2019-04-16T22:36:26.846Z,99.90
2019-04-16T22:39:07.426Z,99.90
2019-04-16T22:41:42.429Z,99.90
2019-04-16T22:44:24.308Z,99.90
2019-04-16T22:46:57.233Z,99.90
2019-04-16T22:49:26.457Z,99.90
2019-04-16T22:51:56.712Z,99.90
2019-04-16T22:54:26.049Z,99.90
2019-04-16T22:57:04.563Z,99.90
2019-04-16T22:59:39.008Z,99.90
2019-04-16T23:02:13.809Z,99.90
2019-04-16T23:04:41.958Z,99.90
2019-04-16T23:07:11.221Z,99.90
2019-04-16T23:09:40.496Z,99.90
2019-04-16T23:12:09.697Z,99.90
2019-04-16T23:14:39.064Z,99.90
2019-04-16T23:17:13.183Z,99.90
2019-04-16T23:19:40.946Z,99.90
2019-04-16T23:22:14.232Z,99.90
2019-04-16T23:24:42.016Z,99.90
2019-04-16T23:27:11.213Z,99.90
2019-04-16T23:29:40.846Z,99.90
2019-04-16T23:32:10.544Z,99.90
2019-04-16T23:34:39.728Z,99.90
2019-04-16T23:37:08.916Z,99.90
2019-04-16T23:39:38.575Z,99.90
2019-04-16T23:42:07.902Z,99.90
2019-04-16T23:45:08.381Z,99.90
2019-04-16T23:48:15.747Z,99.90
2019-04-16T23:50:50.957Z,99.90
2019-04-16T23:53:42.953Z,99.90
2019-04-16T23:56:43.036Z,99.90
2019-04-16T23:59:32.701Z,99.90
